In Rescue
 
Open Full Screen Window  High Contrast Mode
Wind Gusting 14 knots
11
February 25, 2021 5:44 PM EST
Weather Information
Wind Direction
  280 °
Wind Speed
  11 kt (13 mph)
Wind Gust
  14 kt (16 mph)
Altimeter
30.22 in
Visibility
10 SM
Temperature
02° C
36° F
Dewpoint
-07° C
19° F
Humidity
52%
1hr Rain Fall
00.00 in.
24hr Rain Fall
00.00 in.
Sky Condition
Scattered @ 5,000 ft
VFR

METAR KIKW 252244Z AUTO 28011G14KT 10SM SCT050 02/M07 A3022 RMK AO2 T00201067

FAA Disclaimer: The data displayed is for advisory purposes only and is not to be used for flight planning or operations.